sensor_id;sensor_type;location;lat;lon;timestamp;pressure;altitude;pressure_sealevel;temperature;humidity
22662;BME280;11497;52.222;21.246;2023-05-29T00:00:00;100705.06;;;7.89;91.35
22662;BME280;11497;52.222;21.246;2023-05-29T00:02:28;100706.06;;;7.82;91.43
22662;BME280;11497;52.222;21.246;2023-05-29T00:04:56;100713.97;;;7.77;91.75
22662;BME280;11497;52.222;21.246;2023-05-29T00:07:24;100709.78;;;7.68;91.97
22662;BME280;11497;52.222;21.246;2023-05-29T00:09:52;100702.88;;;7.64;92.33
22662;BME280;11497;52.222;21.246;2023-05-29T00:12:19;100704.59;;;7.65;92.35
22662;BME280;11497;52.222;21.246;2023-05-29T00:14:48;100710.78;;;7.60;92.45
22662;BME280;11497;52.222;21.246;2023-05-29T00:17:16;100706.44;;;7.60;92.53
22662;BME280;11497;52.222;21.246;2023-05-29T00:19:44;100706.47;;;7.57;92.81
22662;BME280;11497;52.222;21.246;2023-05-29T00:22:12;100706.47;;;7.57;92.88
22662;BME280;11497;52.222;21.246;2023-05-29T00:24:40;100699.59;;;7.53;93.33
22662;BME280;11497;52.222;21.246;2023-05-29T00:27:08;100705.72;;;7.51;93.50
22662;BME280;11497;52.222;21.246;2023-05-29T00:29:37;100698.72;;;7.54;93.54
22662;BME280;11497;52.222;21.246;2023-05-29T00:32:09;100694.28;;;7.59;93.41
22662;BME280;11497;52.222;21.246;2023-05-29T00:34:37;100696.00;;;7.60;93.33
22662;BME280;11497;52.222;21.246;2023-05-29T00:37:05;100707.44;;;7.50;93.38
22662;BME280;11497;52.222;21.246;2023-05-29T00:39:34;100703.16;;;7.46;93.64
22662;BME280;11497;52.222;21.246;2023-05-29T00:42:02;100696.19;;;7.48;93.50
22662;BME280;11497;52.222;21.246;2023-05-29T00:44:30;100704.78;;;7.55;93.59
22662;BME280;11497;52.222;21.246;2023-05-29T00:46:58;100699.06;;;7.84;92.71
22662;BME280;11497;52.222;21.246;2023-05-29T00:49:26;100704.78;;;7.53;92.54
22662;BME280;11497;52.222;21.246;2023-05-29T00:51:54;100703.06;;;7.52;92.93
22662;BME280;11497;52.222;21.246;2023-05-29T00:54:26;100708.28;;;7.52;93.05
22662;BME280;11497;52.222;21.246;2023-05-29T00:56:57;100713.69;;;7.40;92.93
22662;BME280;11497;52.222;21.246;2023-05-29T00:59:27;100710.44;;;7.26;93.08
22662;BME280;11497;52.222;21.246;2023-05-29T01:01:56;100706.22;;;7.17;93.49
22662;BME280;11497;52.222;21.246;2023-05-29T01:04:29;100713.16;;;7.18;93.92
22662;BME280;11497;52.222;21.246;2023-05-29T01:06:57;100695.03;;;7.11;94.16
22662;BME280;11497;52.222;21.246;2023-05-29T01:09:25;100701.91;;;7.15;94.34
22662;BME280;11497;52.222;21.246;2023-05-29T01:12:19;100708.03;;;7.12;94.21
22662;BME280;11497;52.222;21.246;2023-05-29T01:24:14;100703.03;;;6.97;95.05
22662;BME280;11497;52.222;21.246;2023-05-29T01:27:05;100703.84;;;7.00;94.94
22662;BME280;11497;52.222;21.246;2023-05-29T01:29:39;100698.69;;;6.97;95.06
22662;BME280;11497;52.222;21.246;2023-05-29T01:32:07;100696.88;;;7.03;95.19
22662;BME280;11497;52.222;21.246;2023-05-29T01:34:35;100702.22;;;6.93;95.12
22662;BME280;11497;52.222;21.246;2023-05-29T01:37:03;100702.28;;;6.90;95.52
22662;BME280;11497;52.222;21.246;2023-05-29T01:39:33;100698.00;;;6.86;95.80
22662;BME280;11497;52.222;21.246;2023-05-29T01:42:02;100705.78;;;6.86;96.11
22662;BME280;11497;52.222;21.246;2023-05-29T01:44:30;100700.66;;;6.80;96.15
22662;BME280;11497;52.222;21.246;2023-05-29T01:46:59;100704.16;;;6.79;96.06
22662;BME280;11497;52.222;21.246;2023-05-29T01:49:28;100705.88;;;6.80;96.30
22662;BME280;11497;52.222;21.246;2023-05-29T01:51:57;100700.75;;;6.74;96.56
22662;BME280;11497;52.222;21.246;2023-05-29T01:54:25;100707.75;;;6.69;96.44
22662;BME280;11497;52.222;21.246;2023-05-29T01:56:53;100695.69;;;6.62;96.82
22662;BME280;11497;52.222;21.246;2023-05-29T01:59:22;100696.59;;;6.59;97.32
22662;BME280;11497;52.222;21.246;2023-05-29T02:01:50;100702.69;;;6.57;97.56
22662;BME280;11497;52.222;21.246;2023-05-29T02:04:18;100696.63;;;6.56;97.72
22662;BME280;11497;52.222;21.246;2023-05-29T02:06:46;100687.06;;;6.57;97.96
22662;BME280;11497;52.222;21.246;2023-05-29T02:09:13;100693.19;;;6.54;98.05
22662;BME280;11497;52.222;21.246;2023-05-29T02:11:41;100687.94;;;6.57;98.34
22662;BME280;11497;52.222;21.246;2023-05-29T02:14:13;100684.44;;;6.60;98.38
22662;BME280;11497;52.222;21.246;2023-05-29T02:16:41;100683.63;;;6.56;98.35
22662;BME280;11497;52.222;21.246;2023-05-29T02:19:11;100677.53;;;6.57;98.24
22662;BME280;11497;52.222;21.246;2023-05-29T02:21:39;100673.19;;;6.58;98.15
22662;BME280;11497;52.222;21.246;2023-05-29T02:24:10;100682.69;;;6.60;98.17
22662;BME280;11497;52.222;21.246;2023-05-29T02:26:38;100677.53;;;6.57;98.01
22662;BME280;11497;52.222;21.246;2023-05-29T02:29:06;100675.84;;;6.55;97.73
22662;BME280;11497;52.222;21.246;2023-05-29T02:31:34;100677.69;;;6.48;98.01
22662;BME280;11497;52.222;21.246;2023-05-29T02:34:04;100670.75;;;6.47;98.24
22662;BME280;11497;52.222;21.246;2023-05-29T02:36:32;100673.28;;;6.52;98.44
22662;BME280;11497;52.222;21.246;2023-05-29T02:39:03;100673.19;;;6.58;98.25
22662;BME280;11497;52.222;21.246;2023-05-29T02:41:32;100667.06;;;6.62;98.20
22662;BME280;11497;52.222;21.246;2023-05-29T02:43:59;100663.56;;;6.66;97.79
22662;BME280;11497;52.222;21.246;2023-05-29T02:46:28;100670.50;;;6.65;97.65
22662;BME280;11497;52.222;21.246;2023-05-29T02:48:55;100664.31;;;6.74;97.61
22662;BME280;11497;52.222;21.246;2023-05-29T02:51:23;100664.31;;;6.74;97.27
22662;BME280;11497;52.222;21.246;2023-05-29T02:53:51;100666.03;;;6.75;97.20
22662;BME280;11497;52.222;21.246;2023-05-29T02:56:20;100666.78;;;6.85;96.83
22662;BME280;11497;52.222;21.246;2023-05-29T02:58:51;100665.88;;;6.87;96.67
22662;BME280;11497;52.222;21.246;2023-05-29T03:01:19;100656.06;;;7.06;96.52
22662;BME280;11497;52.222;21.246;2023-05-29T03:03:48;100662.13;;;7.07;96.19
22662;BME280;11497;52.222;21.246;2023-05-29T03:06:17;100669.88;;;7.11;95.81
22662;BME280;11497;52.222;21.246;2023-05-29T03:08:45;100669.72;;;7.22;95.55
22662;BME280;11497;52.222;21.246;2023-05-29T03:11:14;100667.78;;;7.36;95.09
22662;BME280;11497;52.222;21.246;2023-05-29T03:13:42;100670.25;;;7.42;94.90
22662;BME280;11497;52.222;21.246;2023-05-29T03:16:11;100664.94;;;7.48;94.50
22662;BME280;11497;52.222;21.246;2023-05-29T03:18:40;100673.53;;;7.53;94.25
22662;BME280;11497;52.222;21.246;2023-05-29T03:21:09;100671.66;;;7.63;93.94
22662;BME280;11497;52.222;21.246;2023-05-29T03:23:37;100675.72;;;7.79;93.76
22662;BME280;11497;52.222;21.246;2023-05-29T03:26:05;100674.56;;;7.94;93.05
22662;BME280;11497;52.222;21.246;2023-05-29T03:28:35;100679.19;;;8.26;92.33
22662;BME280;11497;52.222;21.246;2023-05-29T03:31:05;100680.56;;;8.47;91.21
22662;BME280;11497;52.222;21.246;2023-05-29T03:33:38;100683.91;;;8.93;90.50
22662;BME280;11497;52.222;21.246;2023-05-29T03:36:17;100683.94;;;9.66;88.22
22662;BME280;11497;52.222;21.246;2023-05-29T03:38:45;100676.28;;;10.57;85.06
22662;BME280;11497;52.222;21.246;2023-05-29T03:41:13;100679.84;;;11.40;81.14
22662;BME280;11497;52.222;21.246;2023-05-29T03:43:42;100682.63;;;12.13;76.85
22662;BME280;11497;52.222;21.246;2023-05-29T03:46:09;100679.34;;;12.08;73.84
22662;BME280;11497;52.222;21.246;2023-05-29T03:48:38;100682.03;;;11.54;73.30
22662;BME280;11497;52.222;21.246;2023-05-29T03:51:06;100683.78;;;11.53;73.33
22662;BME280;11497;52.222;21.246;2023-05-29T03:53:36;100688.63;;;11.11;73.52
22662;BME280;11497;52.222;21.246;2023-05-29T03:56:05;100685.75;;;10.91;73.95
22662;BME280;11497;52.222;21.246;2023-05-29T03:58:33;100697.63;;;10.73;74.79
22662;BME280;11497;52.222;21.246;2023-05-29T04:01:02;100692.81;;;10.58;75.56
22662;BME280;11497;52.222;21.246;2023-05-29T04:03:31;100694.88;;;10.47;75.68
22662;BME280;11497;52.222;21.246;2023-05-29T04:05:59;100700.75;;;10.55;76.20
22662;BME280;11497;52.222;21.246;2023-05-29T04:08:27;100707.28;;;10.71;76.13
22662;BME280;11497;52.222;21.246;2023-05-29T04:10:55;100706.13;;;10.81;75.40
22662;BME280;11497;52.222;21.246;2023-05-29T04:13:23;100701.88;;;10.77;75.32
22662;BME280;11497;52.222;21.246;2023-05-29T04:15:51;100704.66;;;10.71;75.34
22662;BME280;11497;52.222;21.246;2023-05-29T04:18:21;100696.59;;;10.79;75.60
22662;BME280;11497;52.222;21.246;2023-05-29T04:20:49;100706.00;;;10.84;74.96
22662;BME280;11497;52.222;21.246;2023-05-29T04:23:17;100703.06;;;10.95;74.38
22662;BME280;11497;52.222;21.246;2023-05-29T04:25:45;100705.28;;;11.09;74.23
22662;BME280;11497;52.222;21.246;2023-05-29T04:28:17;100701.50;;;11.19;73.71
22662;BME280;11497;52.222;21.246;2023-05-29T04:30:48;100701.00;;;11.34;73.38
22662;BME280;11497;52.222;21.246;2023-05-29T04:33:20;100706.72;;;11.47;72.87
22662;BME280;11497;52.222;21.246;2023-05-29T04:35:51;100710.72;;;11.58;72.71
22662;BME280;11497;52.222;21.246;2023-05-29T04:38:20;100702.19;;;11.78;72.47
22662;BME280;11497;52.222;21.246;2023-05-29T04:40:54;100701.84;;;11.89;71.64
22662;BME280;11497;52.222;21.246;2023-05-29T04:43:26;100695.81;;;12.37;70.63
22662;BME280;11497;52.222;21.246;2023-05-29T04:46:01;100700.03;;;12.64;69.05
22662;BME280;11497;52.222;21.246;2023-05-29T04:48:32;100705.59;;;12.80;68.10
22662;BME280;11497;52.222;21.246;2023-05-29T04:51:00;100704.41;;;12.88;67.18
22662;BME280;11497;52.222;21.246;2023-05-29T04:53:28;100710.16;;;12.98;66.34
22662;BME280;11497;52.222;21.246;2023-05-29T04:55:58;100708.00;;;13.08;65.26
22662;BME280;11497;52.222;21.246;2023-05-29T04:58:26;100716.16;;;13.25;64.44
22662;BME280;11497;52.222;21.246;2023-05-29T05:00:54;100712.78;;;13.43;63.02
22662;BME280;11497;52.222;21.246;2023-05-29T05:03:29;100714.13;;;13.53;62.72
22662;BME280;11497;52.222;21.246;2023-05-29T05:05:59;100706.53;;;13.68;62.48
22662;BME280;11497;52.222;21.246;2023-05-29T05:08:28;100704.38;;;13.77;62.23
22662;BME280;11497;52.222;21.246;2023-05-29T05:10:57;100709.97;;;13.90;61.61
22662;BME280;11497;52.222;21.246;2023-05-29T05:13:26;100705.78;;;14.06;60.09
22662;BME280;11497;52.222;21.246;2023-05-29T05:15:55;100708.94;;;14.14;59.38
22662;BME280;11497;52.222;21.246;2023-05-29T05:18:22;100709.22;;;14.28;59.44
22662;BME280;11497;52.222;21.246;2023-05-29T05:20:58;100701.56;;;14.43;58.98
22662;BME280;11497;52.222;21.246;2023-05-29T05:23:26;100702.47;;;14.62;58.15
22662;BME280;11497;52.222;21.246;2023-05-29T05:25:54;100700.13;;;14.75;57.46
22662;BME280;11497;52.222;21.246;2023-05-29T05:28:23;100706.34;;;14.92;56.65
22662;BME280;11497;52.222;21.246;2023-05-29T05:30:51;100703.84;;;15.08;56.30
22662;BME280;11497;52.222;21.246;2023-05-29T05:33:19;100702.75;;;15.31;56.05
22662;BME280;11497;52.222;21.246;2023-05-29T05:35:47;100707.16;;;15.49;55.03
22662;BME280;11497;52.222;21.246;2023-05-29T05:38:15;100698.25;;;15.69;54.33
22662;BME280;11497;52.222;21.246;2023-05-29T05:40:43;100706.75;;;15.93;52.78
22662;BME280;11497;52.222;21.246;2023-05-29T05:43:20;100710.81;;;16.00;52.70
22662;BME280;11497;52.222;21.246;2023-05-29T05:46:07;100703.63;;;16.19;52.36
22662;BME280;11497;52.222;21.246;2023-05-29T05:48:36;100707.44;;;16.31;52.37
22662;BME280;11497;52.222;21.246;2023-05-29T05:51:04;100706.69;;;17.88;49.84
22662;BME280;11497;52.222;21.246;2023-05-29T05:53:33;100710.56;;;19.53;44.48
22662;BME280;11497;52.222;21.246;2023-05-29T05:56:01;100703.72;;;18.81;43.82
22662;BME280;11497;52.222;21.246;2023-05-29T05:58:29;100714.78;;;18.87;43.31
22662;BME280;11497;52.222;21.246;2023-05-29T06:00:57;100713.34;;;18.68;42.81
22662;BME280;11497;52.222;21.246;2023-05-29T06:03:26;100713.34;;;18.68;42.22
22662;BME280;11497;52.222;21.246;2023-05-29T06:06:02;100709.00;;;18.52;42.23
22662;BME280;11497;52.222;21.246;2023-05-29T06:08:30;100703.22;;;18.46;42.58
22662;BME280;11497;52.222;21.246;2023-05-29T06:10:58;100710.41;;;18.44;42.98
22662;BME280;11497;52.222;21.246;2023-05-29T06:13:26;100709.28;;;18.90;42.45
22662;BME280;11497;52.222;21.246;2023-05-29T06:15:59;100708.25;;;18.93;41.89
22662;BME280;11497;52.222;21.246;2023-05-29T06:18:27;100714.41;;;18.93;40.94
22662;BME280;11497;52.222;21.246;2023-05-29T06:20:55;100709.81;;;19.10;39.19
22662;BME280;11497;52.222;21.246;2023-05-29T06:23:23;100712.28;;;19.13;37.95
22662;BME280;11497;52.222;21.246;2023-05-29T06:25:51;100710.47;;;19.13;37.84
22662;BME280;11497;52.222;21.246;2023-05-29T06:28:20;100703.28;;;19.15;38.07
22662;BME280;11497;52.222;21.246;2023-05-29T06:30:50;100700.41;;;19.33;38.46
22662;BME280;11497;52.222;21.246;2023-05-29T06:33:19;100711.50;;;19.25;38.49
22662;BME280;11497;52.222;21.246;2023-05-29T06:35:49;100706.94;;;19.27;39.06
22662;BME280;11497;52.222;21.246;2023-05-29T06:38:17;100710.72;;;19.37;39.42
22662;BME280;11497;52.222;21.246;2023-05-29T06:40:46;100708.38;;;19.59;37.27
22662;BME280;11497;52.222;21.246;2023-05-29T06:43:13;100707.63;;;19.97;36.11
22662;BME280;11497;52.222;21.246;2023-05-29T06:45:47;100704.88;;;19.99;35.97
22662;BME280;11497;52.222;21.246;2023-05-29T06:48:15;100706.28;;;20.17;35.81
22662;BME280;11497;52.222;21.246;2023-05-29T06:50:46;100703.47;;;19.93;36.59
22662;BME280;11497;52.222;21.246;2023-05-29T06:53:34;100701.94;;;20.29;36.83
22662;BME280;11497;52.222;21.246;2023-05-29T06:56:02;100707.28;;;20.41;36.28
22662;BME280;11497;52.222;21.246;2023-05-29T06:58:31;100706.91;;;20.97;36.29
22662;BME280;11497;52.222;21.246;2023-05-29T07:01:00;100706.66;;;21.49;35.59
22662;BME280;11497;52.222;21.246;2023-05-29T07:03:33;100707.94;;;22.26;34.35
22662;BME280;11497;52.222;21.246;2023-05-29T07:06:04;100705.94;;;22.74;33.42
22662;BME280;11497;52.222;21.246;2023-05-29T07:08:32;100710.06;;;23.01;32.74
22662;BME280;11497;52.222;21.246;2023-05-29T07:11:01;100707.66;;;22.86;31.73
22662;BME280;11497;52.222;21.246;2023-05-29T07:13:30;100708.16;;;22.80;31.48
22662;BME280;11497;52.222;21.246;2023-05-29T07:15:57;100706.09;;;22.95;31.91
22662;BME280;11497;52.222;21.246;2023-05-29T07:18:34;100711.47;;;24.02;31.01
22662;BME280;11497;52.222;21.246;2023-05-29T07:21:02;100722.91;;;26.80;28.32
22662;BME280;11497;52.222;21.246;2023-05-29T07:23:31;100718.47;;;28.85;25.20
22662;BME280;11497;52.222;21.246;2023-05-29T07:25:59;100726.69;;;31.04;23.65
22662;BME280;11497;52.222;21.246;2023-05-29T07:28:29;100725.13;;;32.99;21.88
22662;BME280;11497;52.222;21.246;2023-05-29T07:30:58;100725.25;;;34.27;20.21
22662;BME280;11497;52.222;21.246;2023-05-29T07:33:25;100724.88;;;34.92;18.92
22662;BME280;11497;52.222;21.246;2023-05-29T07:35:56;100721.00;;;36.02;17.92
22662;BME280;11497;52.222;21.246;2023-05-29T07:38:24;100720.13;;;36.68;16.87
22662;BME280;11497;52.222;21.246;2023-05-29T07:40:52;100728.41;;;37.06;16.21
22662;BME280;11497;52.222;21.246;2023-05-29T07:43:35;100725.22;;;37.60;15.32
22662;BME280;11497;52.222;21.246;2023-05-29T07:46:06;100720.19;;;38.20;14.80
22662;BME280;11497;52.222;21.246;2023-05-29T07:48:38;100727.63;;;37.81;14.32
22662;BME280;11497;52.222;21.246;2023-05-29T07:51:06;100728.16;;;38.65;14.05
22662;BME280;11497;52.222;21.246;2023-05-29T07:53:39;100725.81;;;38.86;13.76
22662;BME280;11497;52.222;21.246;2023-05-29T07:56:07;100726.03;;;38.67;13.08
22662;BME280;11497;52.222;21.246;2023-05-29T07:58:35;100728.34;;;38.88;13.24
22662;BME280;11497;52.222;21.246;2023-05-29T08:01:03;100713.69;;;39.31;12.98
22662;BME280;11497;52.222;21.246;2023-05-29T08:03:33;100724.03;;;39.29;12.37
22662;BME280;11497;52.222;21.246;2023-05-29T08:06:21;100726.84;;;39.40;12.87
22662;BME280;11497;52.222;21.246;2023-05-29T08:08:50;100721.16;;;39.83;12.46
22662;BME280;11497;52.222;21.246;2023-05-29T08:11:21;100722.69;;;39.01;12.62
22662;BME280;11497;52.222;21.246;2023-05-29T08:13:49;100722.53;;;39.14;12.44
22662;BME280;11497;52.222;21.246;2023-05-29T08:16:18;100719.69;;;39.39;12.46
22662;BME280;11497;52.222;21.246;2023-05-29T08:18:45;100712.97;;;40.07;11.90
22662;BME280;11497;52.222;21.246;2023-05-29T08:21:13;100720.41;;;39.16;12.08
22662;BME280;11497;52.222;21.246;2023-05-29T08:23:41;100715.88;;;39.70;12.10
22662;BME280;11497;52.222;21.246;2023-05-29T08:26:09;100713.50;;;38.96;12.34
22662;BME280;11497;52.222;21.246;2023-05-29T08:28:37;100720.53;;;39.70;12.38
22662;BME280;11497;52.222;21.246;2023-05-29T08:31:08;100711.44;;;40.34;11.57
22662;BME280;11497;52.222;21.246;2023-05-29T08:33:36;100717.34;;;39.84;11.61
22662;BME280;11497;52.222;21.246;2023-05-29T08:36:04;100720.31;;;39.41;11.94
22662;BME280;11497;52.222;21.246;2023-05-29T08:38:32;100718.06;;;39.92;12.18
22662;BME280;11497;52.222;21.246;2023-05-29T08:41:00;100715.72;;;40.07;11.88
22662;BME280;11497;52.222;21.246;2023-05-29T08:43:32;100709.28;;;39.60;11.87
22662;BME280;11497;52.222;21.246;2023-05-29T08:46:03;100714.66;;;40.08;11.86
22662;BME280;11497;52.222;21.246;2023-05-29T08:48:31;100717.00;;;39.51;11.64
22662;BME280;11497;52.222;21.246;2023-05-29T08:51:02;100718.75;;;38.79;12.27
22662;BME280;11497;52.222;21.246;2023-05-29T08:53:30;100706.72;;;39.16;12.02
22662;BME280;11497;52.222;21.246;2023-05-29T08:55:59;100716.72;;;39.41;12.18
22662;BME280;11497;52.222;21.246;2023-05-29T08:58:29;100708.03;;;38.96;12.02
22662;BME280;11497;52.222;21.246;2023-05-29T09:00:57;100710.84;;;38.71;12.28
22662;BME280;11497;52.222;21.246;2023-05-29T09:03:25;100708.13;;;38.03;12.46
22662;BME280;11497;52.222;21.246;2023-05-29T09:05:58;100698.69;;;38.67;12.52
22662;BME280;11497;52.222;21.246;2023-05-29T09:08:27;100706.97;;;39.15;12.10
22662;BME280;11497;52.222;21.246;2023-05-29T09:10:56;100703.03;;;39.41;12.41
22662;BME280;11497;52.222;21.246;2023-05-29T09:13:25;100691.06;;;39.05;12.32
22662;BME280;11497;52.222;21.246;2023-05-29T09:15:58;100699.19;;;39.30;11.82
22662;BME280;11497;52.222;21.246;2023-05-29T09:18:30;100697.03;;;38.84;12.46
22662;BME280;11497;52.222;21.246;2023-05-29T09:20:58;100699.28;;;38.50;12.70
22662;BME280;11497;52.222;21.246;2023-05-29T09:23:30;100696.38;;;38.45;12.58
22662;BME280;11497;52.222;21.246;2023-05-29T09:25:58;100690.56;;;38.60;12.22
22662;BME280;11497;52.222;21.246;2023-05-29T09:28:26;100683.84;;;38.38;12.45
22662;BME280;11497;52.222;21.246;2023-05-29T09:30:56;100691.47;;;37.79;12.55
22662;BME280;11497;52.222;21.246;2023-05-29T09:33:25;100691.16;;;38.19;12.99
22662;BME280;11497;52.222;21.246;2023-05-29T09:35:54;100693.03;;;37.30;12.68
22662;BME280;11497;52.222;21.246;2023-05-29T09:38:22;100683.63;;;36.82;12.99
22662;BME280;11497;52.222;21.246;2023-05-29T09:41:10;100682.72;;;36.88;13.15
22662;BME280;11497;52.222;21.246;2023-05-29T09:43:39;100676.47;;;37.63;13.37
22662;BME280;11497;52.222;21.246;2023-05-29T09:46:08;100682.16;;;37.62;12.88
22662;BME280;11497;52.222;21.246;2023-05-29T09:48:43;100677.53;;;37.62;13.37
22662;BME280;11497;52.222;21.246;2023-05-29T09:51:21;100669.91;;;37.71;13.73
22662;BME280;11497;52.222;21.246;2023-05-29T09:53:54;100676.72;;;37.24;13.56
22662;BME280;11497;52.222;21.246;2023-05-29T09:56:24;100671.47;;;36.64;12.95
22662;BME280;11497;52.222;21.246;2023-05-29T09:58:54;100672.16;;;35.61;13.60
22662;BME280;11497;52.222;21.246;2023-05-29T10:01:23;100665.22;;;35.58;13.97
22662;BME280;11497;52.222;21.246;2023-05-29T10:03:52;100671.81;;;35.16;14.56
22662;BME280;11497;52.222;21.246;2023-05-29T10:06:21;100663.81;;;34.95;14.23
22662;BME280;11497;52.222;21.246;2023-05-29T10:08:50;100654.34;;;35.39;14.80
22662;BME280;11497;52.222;21.246;2023-05-29T10:11:24;100660.63;;;35.39;14.22
22662;BME280;11497;52.222;21.246;2023-05-29T10:13:57;100653.78;;;33.98;14.64
22662;BME280;11497;52.222;21.246;2023-05-29T10:16:25;100654.53;;;32.04;15.90
22662;BME280;11497;52.222;21.246;2023-05-29T10:18:55;100658.09;;;30.66;17.06
22662;BME280;11497;52.222;21.246;2023-05-29T10:21:27;100652.59;;;29.29;18.07
22662;BME280;11497;52.222;21.246;2023-05-29T10:23:57;100649.72;;;28.80;19.78
22662;BME280;11497;52.222;21.246;2023-05-29T10:26:26;100652.41;;;28.21;19.59
22662;BME280;11497;52.222;21.246;2023-05-29T10:29:19;100651.97;;;27.28;21.51
22662;BME280;11497;52.222;21.246;2023-05-29T10:40:24;100634.66;;;26.11;22.17
22662;BME280;11497;52.222;21.246;2023-05-29T10:42:53;100644.03;;;25.98;23.34
22662;BME280;11497;52.222;21.246;2023-05-29T10:50:37;100635.03;;;25.50;23.08
22662;BME280;11497;52.222;21.246;2023-05-29T10:53:17;100637.53;;;25.23;23.51
22662;BME280;11497;52.222;21.246;2023-05-29T10:55:46;100630.47;;;25.22;23.42
22662;BME280;11497;52.222;21.246;2023-05-29T10:58:24;100634.91;;;24.93;24.02
22662;BME280;11497;52.222;21.246;2023-05-29T11:00:54;100617.78;;;25.05;24.14
22662;BME280;11497;52.222;21.246;2023-05-29T11:03:31;100622.16;;;25.06;24.49
22662;BME280;11497;52.222;21.246;2023-05-29T11:06:00;100619.03;;;25.01;24.13
22662;BME280;11497;52.222;21.246;2023-05-29T11:08:56;100622.25;;;24.95;24.22
22662;BME280;11497;52.222;21.246;2023-05-29T11:13:56;100614.25;;;25.14;25.07
22662;BME280;11497;52.222;21.246;2023-05-29T11:19:08;100608.78;;;25.06;24.38
22662;BME280;11497;52.222;21.246;2023-05-29T11:24:28;100609.72;;;24.55;24.53
22662;BME280;11497;52.222;21.246;2023-05-29T11:26:57;100596.19;;;24.47;24.82
22662;BME280;11497;52.222;21.246;2023-05-29T11:29:34;100603.03;;;24.80;25.07
22662;BME280;11497;52.222;21.246;2023-05-29T11:32:05;100601.16;;;24.71;24.42
22662;BME280;11497;52.222;21.246;2023-05-29T11:34:33;100603.84;;;24.71;24.52
22662;BME280;11497;52.222;21.246;2023-05-29T11:37:03;100596.81;;;24.79;25.29
22662;BME280;11497;52.222;21.246;2023-05-29T11:39:30;100593.19;;;24.90;24.74
22662;BME280;11497;52.222;21.246;2023-05-29T11:42:00;100592.69;;;25.06;25.53
22662;BME280;11497;52.222;21.246;2023-05-29T11:44:29;100598.53;;;24.80;25.64
22662;BME280;11497;52.222;21.246;2023-05-29T11:47:05;100593.09;;;24.51;25.74
22662;BME280;11497;52.222;21.246;2023-05-29T11:49:37;100590.81;;;24.47;26.11
22662;BME280;11497;52.222;21.246;2023-05-29T11:52:15;100588.50;;;24.33;26.14
22662;BME280;11497;52.222;21.246;2023-05-29T11:54:44;100584.13;;;24.32;26.14
22662;BME280;11497;52.222;21.246;2023-05-29T11:57:20;100582.63;;;24.39;26.39
22662;BME280;11497;52.222;21.246;2023-05-29T11:59:52;100579.84;;;24.50;27.04
22662;BME280;11497;52.222;21.246;2023-05-29T12:02:28;100573.78;;;25.17;26.60
22662;BME280;11497;52.222;21.246;2023-05-29T12:05:05;100580.56;;;25.40;25.23
22662;BME280;11497;52.222;21.246;2023-05-29T12:07:37;100578.03;;;25.48;25.18
22662;BME280;11497;52.222;21.246;2023-05-29T12:10:12;100583.69;;;25.65;25.19
22662;BME280;11497;52.222;21.246;2023-05-29T12:12:41;100583.97;;;25.42;24.87
22662;BME280;11497;52.222;21.246;2023-05-29T12:15:09;100572.94;;;25.84;25.20
22662;BME280;11497;52.222;21.246;2023-05-29T12:17:38;100578.28;;;25.84;24.96
22662;BME280;11497;52.222;21.246;2023-05-29T12:20:07;100579.84;;;25.58;24.67
22662;BME280;11497;52.222;21.246;2023-05-29T12:22:38;100571.53;;;25.22;24.96
22662;BME280;11497;52.222;21.246;2023-05-29T12:25:13;100576.34;;;25.28;25.12
22662;BME280;11497;52.222;21.246;2023-05-29T12:27:46;100569.16;;;25.19;25.25
22662;BME280;11497;52.222;21.246;2023-05-29T12:30:20;100570.44;;;25.05;25.91
22662;BME280;11497;52.222;21.246;2023-05-29T12:33:01;100563.66;;;25.11;25.82
22662;BME280;11497;52.222;21.246;2023-05-29T12:35:30;100570.69;;;25.22;25.80
22662;BME280;11497;52.222;21.246;2023-05-29T12:38:04;100566.63;;;25.27;25.27
22662;BME280;11497;52.222;21.246;2023-05-29T12:40:33;100561.66;;;25.13;25.64
22662;BME280;11497;52.222;21.246;2023-05-29T12:43:08;100567.88;;;25.42;25.89
22662;BME280;11497;52.222;21.246;2023-05-29T12:45:38;100557.88;;;25.44;24.89
22662;BME280;11497;52.222;21.246;2023-05-29T12:48:07;100563.94;;;25.46;25.57
22662;BME280;11497;52.222;21.246;2023-05-29T12:50:41;100555.19;;;25.64;25.21
22662;BME280;11497;52.222;21.246;2023-05-29T12:53:12;100561.25;;;25.46;25.49
22662;BME280;11497;52.222;21.246;2023-05-29T12:55:43;100567.03;;;25.32;25.94
22662;BME280;11497;52.222;21.246;2023-05-29T12:58:12;100557.19;;;25.04;25.86
22662;BME280;11497;52.222;21.246;2023-05-29T13:00:42;100552.59;;;24.85;26.03
22662;BME280;11497;52.222;21.246;2023-05-29T13:03:11;100551.75;;;24.65;26.23
22662;BME280;11497;52.222;21.246;2023-05-29T13:05:39;100553.00;;;24.61;26.58
22662;BME280;11497;52.222;21.246;2023-05-29T13:08:08;100548.19;;;24.55;26.77
22662;BME280;11497;52.222;21.246;2023-05-29T13:10:36;100541.25;;;24.43;26.60
22662;BME280;11497;52.222;21.246;2023-05-29T13:13:04;100535.28;;;24.30;26.53
22662;BME280;11497;52.222;21.246;2023-05-29T13:15:32;100542.22;;;24.42;26.38
22662;BME280;11497;52.222;21.246;2023-05-29T13:18:01;100538.31;;;24.46;26.74
22662;BME280;11497;52.222;21.246;2023-05-29T13:20:29;100534.38;;;24.50;27.32
22662;BME280;11497;52.222;21.246;2023-05-29T13:22:59;100526.25;;;24.90;26.04
22662;BME280;11497;52.222;21.246;2023-05-29T13:25:27;100520.34;;;24.86;25.91
22662;BME280;11497;52.222;21.246;2023-05-29T13:27:56;100524.13;;;24.74;26.40